createdAt,value
2018-09-20T00:05:55.204Z,58.97
2018-09-20T00:08:58.640Z,60.27
2018-09-20T00:12:02.163Z,59.92
2018-09-20T00:15:05.726Z,59.71
2018-09-20T00:18:09.282Z,60.57
2018-09-20T00:21:12.832Z,60.68
2018-09-20T00:24:16.252Z,60.01
2018-09-20T00:27:19.808Z,60.44
2018-09-20T00:30:23.261Z,60.56
2018-09-20T00:33:26.750Z,60.58
2018-09-20T00:36:30.168Z,61.32
2018-09-20T00:39:33.970Z,61.65
2018-09-20T00:42:37.496Z,60.95
2018-09-20T00:45:41.235Z,60.30
2018-09-20T00:48:44.674Z,60.59
2018-09-20T00:51:48.585Z,60.41
2018-09-20T00:54:52.730Z,61.01
2018-09-20T00:57:56.520Z,60.55
2018-09-20T01:01:00.607Z,60.33
2018-09-20T01:04:04.058Z,61.01
2018-09-20T01:07:07.590Z,60.79
2018-09-20T01:10:11.034Z,61.75
2018-09-20T01:13:14.431Z,61.87
2018-09-20T01:16:17.839Z,61.24
2018-09-20T01:19:21.339Z,61.85
2018-09-20T01:22:24.908Z,62.20
2018-09-20T01:25:28.350Z,61.53
2018-09-20T01:28:31.745Z,62.58
2018-09-20T01:31:35.150Z,62.35
2018-09-20T01:34:38.565Z,62.77
2018-09-20T01:37:42.386Z,62.03
2018-09-20T01:40:45.981Z,62.63
2018-09-20T01:43:49.457Z,62.78
2018-09-20T01:46:52.855Z,61.74
2018-09-20T01:49:56.253Z,61.58
2018-09-20T01:52:59.895Z,61.89
2018-09-20T01:56:03.361Z,62.69
2018-09-20T01:59:06.817Z,63.17
2018-09-20T02:02:10.394Z,63.80
2018-09-20T02:05:13.897Z,62.64
2018-09-20T02:08:17.375Z,63.79
2018-09-20T02:11:20.778Z,64.25
2018-09-20T02:14:24.271Z,64.14
2018-09-20T02:17:27.670Z,63.32
2018-09-20T02:20:31.090Z,63.41
2018-09-20T02:23:34.738Z,63.48
2018-09-20T02:26:38.152Z,63.86
2018-09-20T02:29:41.572Z,63.67
2018-09-20T02:32:45.039Z,64.12
2018-09-20T02:35:48.479Z,65.04
2018-09-20T02:38:51.919Z,65.40
2018-09-20T02:41:55.269Z,65.33
2018-09-20T02:44:58.669Z,65.08
2018-09-20T02:48:02.115Z,64.10
2018-09-20T02:51:05.473Z,65.03
2018-09-20T02:54:08.908Z,65.37
2018-09-20T02:57:12.273Z,65.30
2018-09-20T03:00:15.728Z,65.18
2018-09-20T03:03:19.184Z,65.35
2018-09-20T03:06:22.576Z,65.40
2018-09-20T03:09:25.983Z,65.30
2018-09-20T03:12:29.365Z,65.07
2018-09-20T03:15:32.770Z,65.13
2018-09-20T03:18:36.306Z,65.06
2018-09-20T03:21:39.659Z,65.16
2018-09-20T03:24:43.367Z,65.03
2018-09-20T03:27:46.799Z,65.95
2018-09-20T03:30:50.542Z,65.86
2018-09-20T03:33:53.886Z,67.27
2018-09-20T03:36:57.303Z,65.50
2018-09-20T03:40:00.826Z,66.92
2018-09-20T03:43:04.206Z,67.83
2018-09-20T03:46:07.862Z,67.43
2018-09-20T03:49:11.313Z,66.80
2018-09-20T03:52:14.887Z,67.49
2018-09-20T03:55:18.413Z,67.82
2018-09-20T03:58:22.148Z,68.19
2018-09-20T04:01:25.623Z,67.01
2018-09-20T04:04:29.231Z,67.15
2018-09-20T04:07:32.807Z,67.92
2018-09-20T04:10:36.363Z,67.64
2018-09-20T04:13:39.876Z,67.66
2018-09-20T04:16:43.339Z,67.75
2018-09-20T04:19:46.856Z,67.60
2018-09-20T04:22:50.479Z,67.32
2018-09-20T04:25:53.958Z,67.29
2018-09-20T04:28:57.824Z,67.77
2018-09-20T04:32:01.335Z,68.32
2018-09-20T04:35:04.931Z,67.51
2018-09-20T04:38:08.394Z,68.00
2018-09-20T04:41:11.973Z,67.83
2018-09-20T04:44:15.456Z,67.33
2018-09-20T04:47:18.971Z,68.56
2018-09-20T04:50:22.572Z,68.25
2018-09-20T04:53:26.121Z,68.23
2018-09-20T04:56:29.604Z,68.53
2018-09-20T04:59:33.077Z,68.19
2018-09-20T05:02:36.568Z,68.76
2018-09-20T05:05:40.077Z,69.31
2018-09-20T05:08:43.488Z,69.39
2018-09-20T05:11:47.006Z,69.55
2018-09-20T05:14:50.504Z,69.90
2018-09-20T05:17:54.019Z,69.39
2018-09-20T05:20:57.559Z,68.41
2018-09-20T05:24:01.039Z,68.69
2018-09-20T05:27:04.496Z,70.15
2018-09-20T05:30:07.967Z,69.42
2018-09-20T05:33:11.468Z,69.92
2018-09-20T05:36:14.910Z,69.86
2018-09-20T05:39:18.415Z,68.98
2018-09-20T05:42:21.906Z,69.81
2018-09-20T05:45:25.495Z,69.66
2018-09-20T05:48:29.017Z,69.65
2018-09-20T05:51:32.420Z,69.05
2018-09-20T05:54:36.326Z,69.59
2018-09-20T05:57:39.846Z,68.96
2018-09-20T06:00:43.396Z,70.09
2018-09-20T06:03:47.211Z,69.64
2018-09-20T06:06:50.752Z,69.45
2018-09-20T06:09:54.259Z,69.55
2018-09-20T06:12:57.701Z,68.39
2018-09-20T06:16:01.159Z,68.50
2018-09-20T06:19:04.585Z,68.91
2018-09-20T06:22:08.401Z,69.17
2018-09-20T06:25:12.170Z,68.47
2018-09-20T06:28:15.583Z,68.47
2018-09-20T06:31:19.023Z,68.62
2018-09-20T06:34:22.501Z,68.57
2018-09-20T06:37:26.074Z,68.94
2018-09-20T06:40:29.504Z,68.07
2018-09-20T06:43:32.971Z,67.93
2018-09-20T06:46:36.388Z,68.02
2018-09-20T06:49:39.806Z,67.75
2018-09-20T06:52:43.307Z,67.93
2018-09-20T06:55:46.817Z,66.92
2018-09-20T06:58:50.356Z,66.98
2018-09-20T07:01:53.818Z,66.77
2018-09-20T07:04:57.469Z,66.11
2018-09-20T07:08:01.013Z,65.43
2018-09-20T07:11:04.436Z,65.37
2018-09-20T07:14:07.981Z,64.91
2018-09-20T07:17:11.489Z,64.74
2018-09-20T07:20:14.973Z,64.11
2018-09-20T07:23:18.588Z,64.08
2018-09-20T07:26:22.046Z,63.93
2018-09-20T07:29:25.501Z,63.79
2018-09-20T07:32:28.904Z,63.41
2018-09-20T07:35:32.380Z,63.18
2018-09-20T07:38:35.887Z,62.51
2018-09-20T07:41:39.765Z,62.16
2018-09-20T07:44:43.116Z,62.17
2018-09-20T07:47:46.523Z,61.77
2018-09-20T07:50:50.299Z,61.52
2018-09-20T07:53:53.766Z,60.92
2018-09-20T07:56:57.338Z,61.48
2018-09-20T08:00:02.873Z,61.71
2018-09-20T08:03:06.310Z,61.34
2018-09-20T08:06:09.765Z,60.86
2018-09-20T08:09:13.491Z,60.03
2018-09-20T08:12:17.156Z,59.50
2018-09-20T08:15:20.505Z,59.11
2018-09-20T08:18:24.256Z,59.05
2018-09-20T08:21:27.779Z,58.65
2018-09-20T08:24:31.156Z,58.27
2018-09-20T08:27:34.506Z,57.80
2018-09-20T08:30:37.938Z,57.16
2018-09-20T08:33:41.532Z,56.76
2018-09-20T08:36:44.965Z,56.50
2018-09-20T08:39:48.418Z,56.12
2018-09-20T08:42:51.886Z,55.73
2018-09-20T08:45:55.356Z,55.80
2018-09-20T08:48:58.759Z,53.95
2018-09-20T08:52:02.173Z,53.56
2018-09-20T08:55:06.087Z,53.50
2018-09-20T08:58:09.608Z,52.68
2018-09-20T09:01:13.156Z,53.33
2018-09-20T09:04:16.642Z,52.99
2018-09-20T09:07:20.051Z,53.04
2018-09-20T09:10:23.571Z,52.16
2018-09-20T09:13:26.976Z,51.62
2018-09-20T09:16:30.497Z,50.95
2018-09-20T09:19:34.056Z,50.25
2018-09-20T09:22:37.577Z,49.91
2018-09-20T09:25:41.194Z,49.70
2018-09-20T09:28:44.717Z,49.29
2018-09-20T09:31:48.164Z,49.40
2018-09-20T09:34:51.743Z,47.35
2018-09-20T09:37:55.170Z,46.91
2018-09-20T09:40:58.765Z,46.44
2018-09-20T09:44:02.390Z,46.60
2018-09-20T09:47:05.928Z,46.18
2018-09-20T09:50:09.456Z,45.37
2018-09-20T09:53:13.086Z,45.42
2018-09-20T09:56:16.640Z,45.86
2018-09-20T09:59:20.098Z,45.42
2018-09-20T10:02:23.789Z,45.15
2018-09-20T10:05:27.317Z,45.82
2018-09-20T10:08:30.948Z,44.55
2018-09-20T10:11:34.456Z,44.53
2018-09-20T10:14:38.188Z,43.92
2018-09-20T10:17:41.731Z,43.16
2018-09-20T10:20:45.279Z,43.96
2018-09-20T10:23:48.791Z,43.43
2018-09-20T10:26:52.294Z,43.77
2018-09-20T10:29:55.728Z,43.25
2018-09-20T10:32:59.271Z,42.51
2018-09-20T10:36:02.869Z,42.35
2018-09-20T10:39:09.219Z,42.29
2018-09-20T10:42:12.817Z,41.38
2018-09-20T10:45:16.349Z,41.31
2018-09-20T10:48:19.830Z,41.25
2018-09-20T10:51:23.520Z,40.57
2018-09-20T10:54:27.364Z,41.22
2018-09-20T10:57:30.947Z,41.77
2018-09-20T11:00:34.474Z,41.39
2018-09-20T11:03:38.073Z,41.61
2018-09-20T11:06:41.593Z,41.46
2018-09-20T11:09:45.309Z,41.12
2018-09-20T11:12:48.878Z,41.25
2018-09-20T11:15:52.458Z,41.60
2018-09-20T11:18:55.936Z,41.59
2018-09-20T11:21:59.493Z,41.30
2018-09-20T11:25:03.027Z,40.71
2018-09-20T11:28:06.559Z,39.75
2018-09-20T11:31:10.081Z,39.73
2018-09-20T11:34:13.602Z,38.21
2018-09-20T11:37:17.976Z,38.29
2018-09-20T11:40:21.423Z,38.76
2018-09-20T11:43:24.944Z,38.69
2018-09-20T11:46:30.253Z,35.91
2018-09-20T11:49:33.791Z,35.98
2018-09-20T11:52:37.343Z,36.18
2018-09-20T11:55:40.795Z,36.18
2018-09-20T11:58:44.386Z,35.50
2018-09-20T12:01:48.021Z,34.88
2018-09-20T12:04:51.563Z,34.59
2018-09-20T12:07:55.066Z,35.89
2018-09-20T12:10:58.527Z,35.34
2018-09-20T12:14:02.099Z,35.65
2018-09-20T12:17:05.526Z,34.95
2018-09-20T12:20:09.047Z,31.36
2018-09-20T12:23:12.491Z,32.58
2018-09-20T12:26:15.955Z,32.03
2018-09-20T12:29:19.461Z,31.91
2018-09-20T12:32:23.533Z,33.40
2018-09-20T12:35:26.868Z,34.52
2018-09-20T12:38:30.345Z,33.25
2018-09-20T12:41:33.878Z,33.74
2018-09-20T12:44:37.318Z,33.08
2018-09-20T12:47:41.088Z,32.75
2018-09-20T12:50:44.700Z,33.27
2018-09-20T12:53:48.099Z,33.67
2018-09-20T12:56:51.617Z,33.90
2018-09-20T12:59:55.109Z,33.84
2018-09-20T13:02:58.598Z,34.47
2018-09-20T13:06:02.134Z,34.63
2018-09-20T13:09:08.273Z,34.39
2018-09-20T13:12:11.835Z,34.40
2018-09-20T13:15:15.350Z,33.82
2018-09-20T13:18:18.902Z,33.66
2018-09-20T13:21:22.384Z,34.13
2018-09-20T13:24:25.986Z,34.01
2018-09-20T13:27:29.616Z,34.19
2018-09-20T13:30:33.109Z,33.61
2018-09-20T13:33:36.578Z,33.38
2018-09-20T13:36:40.145Z,33.77
2018-09-20T13:39:43.683Z,33.47
2018-09-20T13:42:47.289Z,33.62
2018-09-20T13:45:50.994Z,33.14
2018-09-20T13:48:54.581Z,33.15
2018-09-20T13:51:58.152Z,33.05
2018-09-20T13:55:01.642Z,33.08
2018-09-20T13:58:05.315Z,33.33
2018-09-20T14:01:08.913Z,33.37
2018-09-20T14:04:12.434Z,32.66
2018-09-20T14:07:16.263Z,32.79
2018-09-20T14:10:19.938Z,32.65
2018-09-20T14:13:23.453Z,32.08
2018-09-20T14:16:27.053Z,31.98
2018-09-20T14:19:30.719Z,32.23
2018-09-20T14:22:34.430Z,32.51
2018-09-20T14:25:37.919Z,32.54
2018-09-20T14:28:41.536Z,32.12
2018-09-20T14:31:45.079Z,31.89
2018-09-20T14:34:48.568Z,31.39
2018-09-20T14:37:52.080Z,31.63
2018-09-20T14:40:55.657Z,31.56
2018-09-20T14:43:59.277Z,31.15
2018-09-20T14:47:02.770Z,30.28
2018-09-20T14:50:06.301Z,30.87
2018-09-20T14:53:09.866Z,31.02
2018-09-20T14:56:13.355Z,31.52
2018-09-20T14:59:16.833Z,31.75
2018-09-20T15:02:20.431Z,31.62
2018-09-20T15:05:24.021Z,31.52
2018-09-20T15:08:27.469Z,31.27
2018-09-20T15:11:30.996Z,31.30
2018-09-20T15:14:34.521Z,31.05
2018-09-20T15:17:37.939Z,31.48
2018-09-20T15:20:41.533Z,31.59
2018-09-20T15:23:45.163Z,31.52
2018-09-20T15:26:48.770Z,31.65
2018-09-20T15:29:52.294Z,31.99
2018-09-20T15:32:55.874Z,32.29
2018-09-20T15:35:59.470Z,32.23
2018-09-20T15:39:03.527Z,32.13
2018-09-20T15:42:07.071Z,32.20
2018-09-20T15:45:10.682Z,31.71
2018-09-20T15:48:14.161Z,31.80
2018-09-20T15:51:17.627Z,31.81
2018-09-20T15:54:21.170Z,32.63
2018-09-20T15:57:24.664Z,32.71
2018-09-20T16:00:28.206Z,32.65
2018-09-20T16:03:31.640Z,32.97
2018-09-20T16:06:35.205Z,33.13
2018-09-20T16:09:38.645Z,33.20
2018-09-20T16:12:42.487Z,33.24
2018-09-20T16:18:57.775Z,33.56
2018-09-20T16:22:01.214Z,33.72
2018-09-20T16:25:05.143Z,33.75
2018-09-20T16:28:18.900Z,33.94
2018-09-20T16:31:33.853Z,34.94
2018-09-20T16:34:52.661Z,34.77
2018-09-20T16:38:03.956Z,34.70
2018-09-20T16:41:09.878Z,35.22
2018-09-20T16:44:13.343Z,35.54
2018-09-20T16:47:16.747Z,35.71
2018-09-20T16:50:20.145Z,35.58
2018-09-20T16:53:24.015Z,36.47
2018-09-20T16:56:27.440Z,36.33
2018-09-20T16:59:30.876Z,36.47
2018-09-20T17:02:34.283Z,36.68
2018-09-20T17:05:37.794Z,37.01
2018-09-20T17:08:41.415Z,37.48
2018-09-20T17:11:44.965Z,37.82
2018-09-20T17:14:48.439Z,38.39
2018-09-20T17:17:51.884Z,38.60
2018-09-20T17:20:55.277Z,38.67
2018-09-20T17:23:58.684Z,39.32
2018-09-20T17:27:02.103Z,40.32
2018-09-20T17:30:05.556Z,41.35
2018-09-20T17:33:09.075Z,42.32
2018-09-20T17:36:12.878Z,42.91
2018-09-20T17:39:17.267Z,42.12
2018-09-20T17:42:22.193Z,41.67
2018-09-20T17:45:25.602Z,42.06
2018-09-20T17:48:29.074Z,42.57
2018-09-20T17:51:32.949Z,42.96
2018-09-20T17:54:37.133Z,43.38
2018-09-20T17:57:41.489Z,43.85
2018-09-20T18:00:44.928Z,44.58
2018-09-20T18:03:48.490Z,45.22
2018-09-20T18:06:51.969Z,45.07
2018-09-20T18:09:55.811Z,45.56
2018-09-20T18:12:59.238Z,45.90
2018-09-20T18:16:02.681Z,46.17
2018-09-20T18:19:06.067Z,47.02
2018-09-20T18:22:09.609Z,46.94
2018-09-20T18:25:13.158Z,47.21
2018-09-20T18:28:16.574Z,47.68
2018-09-20T18:31:20.214Z,48.16
2018-09-20T18:34:23.987Z,48.45
2018-09-20T18:37:28.792Z,48.47
2018-09-20T18:40:32.593Z,49.07
2018-09-20T18:43:36.125Z,49.56
2018-09-20T18:46:39.709Z,49.74
2018-09-20T18:49:43.202Z,50.05
2018-09-20T18:52:46.789Z,50.93
2018-09-20T18:55:50.290Z,50.57
2018-09-20T18:58:53.844Z,50.53
2018-09-20T19:01:57.328Z,50.83
2018-09-20T19:05:00.867Z,51.10
2018-09-20T19:08:04.441Z,50.93
2018-09-20T19:11:08.018Z,51.47
2018-09-20T19:14:11.689Z,51.20
2018-09-20T19:17:15.147Z,51.57
2018-09-20T19:20:18.684Z,49.89
2018-09-20T19:23:22.228Z,50.75
2018-09-20T19:26:25.798Z,51.02
2018-09-20T19:29:29.539Z,50.29
2018-09-20T19:32:33.060Z,50.71
2018-09-20T19:35:36.626Z,50.74
2018-09-20T19:38:40.162Z,51.16
2018-09-20T19:41:43.647Z,51.40
2018-09-20T19:44:47.168Z,51.14
2018-09-20T19:47:50.640Z,51.33
2018-09-20T19:50:54.062Z,51.40
2018-09-20T19:53:57.550Z,51.41
2018-09-20T19:57:01.086Z,51.72
2018-09-20T20:00:04.981Z,52.07
2018-09-20T20:03:08.633Z,51.67
2018-09-20T20:06:12.071Z,51.70
2018-09-20T20:09:15.477Z,51.68
2018-09-20T20:12:19.094Z,52.14
2018-09-20T20:15:22.605Z,52.16
2018-09-20T20:18:26.113Z,52.65
2018-09-20T20:21:29.668Z,52.63
2018-09-20T20:24:33.084Z,53.05
2018-09-20T20:27:36.573Z,53.44
2018-09-20T20:30:40.598Z,53.92
2018-09-20T20:33:45.172Z,54.04
2018-09-20T20:36:49.602Z,54.52
2018-09-20T20:39:54.429Z,54.46
2018-09-20T20:42:58.874Z,54.96
2018-09-20T20:46:03.830Z,54.86
2018-09-20T20:49:08.294Z,55.03
2018-09-20T20:52:12.844Z,55.27
2018-09-20T20:55:17.448Z,55.29
2018-09-20T20:58:21.847Z,55.39
2018-09-20T21:01:26.384Z,55.30
2018-09-20T21:04:30.723Z,54.84
2018-09-20T21:07:35.390Z,54.77
2018-09-20T21:10:40.861Z,55.00
2018-09-20T21:13:45.248Z,54.88
2018-09-20T21:16:49.886Z,55.12
2018-09-20T21:19:54.977Z,55.01
2018-09-20T21:22:59.459Z,55.01
2018-09-20T21:26:03.978Z,55.57
2018-09-20T21:29:09.819Z,55.22
2018-09-20T21:32:14.299Z,54.98
2018-09-20T21:35:19.030Z,55.37
2018-09-20T21:38:23.738Z,55.03
2018-09-20T21:41:28.641Z,55.45
2018-09-20T21:44:33.012Z,55.00
2018-09-20T21:47:37.526Z,54.72
2018-09-20T21:50:42.129Z,54.89
2018-09-20T21:53:46.680Z,54.74
2018-09-20T21:56:51.150Z,54.99
2018-09-20T21:59:54.648Z,55.30
2018-09-20T22:03:02.481Z,55.27
2018-09-20T22:06:06.928Z,56.18
2018-09-20T22:09:12.547Z,55.90
2018-09-20T22:12:16.013Z,56.68
2018-09-20T22:15:23.452Z,56.28
2018-09-20T22:18:26.927Z,56.79
2018-09-20T22:21:30.297Z,55.90
2018-09-20T22:24:33.719Z,56.58
2018-09-20T22:27:38.280Z,55.98
2018-09-20T22:30:41.715Z,56.99
2018-09-20T22:33:45.142Z,56.10
2018-09-20T22:36:48.564Z,56.15
2018-09-20T22:39:51.947Z,56.60
2018-09-20T22:42:55.338Z,56.85
2018-09-20T22:45:58.884Z,56.77
2018-09-20T22:49:02.368Z,57.28
2018-09-20T22:52:05.860Z,56.53
2018-09-20T22:55:09.271Z,56.78
2018-09-20T22:58:12.649Z,57.42
2018-09-20T23:01:16.043Z,57.37
2018-09-20T23:04:19.490Z,57.96
2018-09-20T23:07:22.912Z,57.74
2018-09-20T23:10:26.377Z,58.49
2018-09-20T23:13:29.756Z,58.33
2018-09-20T23:16:33.403Z,58.59
2018-09-20T23:19:36.943Z,57.76
2018-09-20T23:22:40.357Z,58.64
2018-09-20T23:25:43.842Z,58.81
2018-09-20T23:28:47.518Z,58.93
2018-09-20T23:31:51.936Z,58.60
2018-09-20T23:34:55.634Z,57.97
2018-09-20T23:37:59.060Z,57.92
2018-09-20T23:41:02.532Z,57.79
2018-09-20T23:44:06.193Z,57.99
2018-09-20T23:47:09.650Z,58.60
2018-09-20T23:50:13.169Z,58.26
2018-09-20T23:53:16.621Z,57.61
2018-09-20T23:56:20.161Z,58.63
2018-09-20T23:59:24.584Z,58.58
